Terminal Aerodrome Forecast
Issued by NWS

Home | Current Version | Previous Version | Text Only | Print | Product List | Glossary On
Versions: 1 2 3 4 5 6 7 8 9 10 11 12 13 14 15 16 17 18 19 20 21 22 23
000
FTUS43 KTOP 220100 AAA
TAFMHK
TAF AMD
KMHK 220155Z 2202/2224 13005KT P6SM SKC
     FM220900 14007KT P6SM SCT035
     FM221400 17011KT P6SM SCT040
     FM221700 18013G20KT P6SM SCT250=

USA.gov is the U.S. government's official web portal to all federal, state and local government web resources and services.